createdAt,value
2022-09-22T00:01:33.284Z,1.33
2022-09-22T00:04:03.400Z,1.20
2022-09-22T00:06:39.191Z,1.00
2022-09-22T00:09:09.046Z,1.00
2022-09-22T00:11:41.159Z,1.15
2022-09-22T00:14:09.697Z,1.55
2022-09-22T00:16:42.432Z,1.65
2022-09-22T00:19:12.806Z,1.27
2022-09-22T00:21:41.177Z,2.10
2022-09-22T00:24:14.796Z,1.42
2022-09-22T00:26:41.911Z,1.27
2022-09-22T00:29:10.011Z,2.35
2022-09-22T00:31:39.563Z,1.65
2022-09-22T00:34:08.110Z,1.45
2022-09-22T00:36:35.765Z,1.20
2022-09-22T00:39:02.802Z,1.38
2022-09-22T00:41:36.406Z,1.00
2022-09-22T00:44:21.527Z,1.10
2022-09-22T00:46:53.088Z,1.33
2022-09-22T00:49:27.575Z,1.05
2022-09-22T00:51:54.625Z,1.20
2022-09-22T00:54:21.729Z,1.58
2022-09-22T00:56:58.109Z,1.20
2022-09-22T00:59:28.293Z,1.45
2022-09-22T01:01:55.525Z,1.65
2022-09-22T01:04:24.115Z,1.58
2022-09-22T01:06:53.370Z,1.33
2022-09-22T01:09:20.742Z,2.42
2022-09-22T01:11:48.065Z,1.42
2022-09-22T01:14:33.067Z,1.60
2022-09-22T01:17:09.290Z,2.10
2022-09-22T01:19:45.122Z,1.70
2022-09-22T01:22:42.230Z,1.83
2022-09-22T01:25:33.252Z,2.45
2022-09-22T01:28:37.632Z,1.92
2022-09-22T01:31:23.768Z,2.00
2022-09-22T01:33:58.468Z,1.83
2022-09-22T01:36:27.851Z,1.73
2022-09-22T01:38:58.695Z,2.42
2022-09-22T01:41:37.887Z,2.10
2022-09-22T01:44:11.260Z,2.10
2022-09-22T01:46:44.319Z,2.28
2022-09-22T01:49:14.384Z,2.30
2022-09-22T01:51:47.759Z,2.33
2022-09-22T01:54:37.675Z,3.08
2022-09-22T01:57:14.143Z,2.88
2022-09-22T01:59:46.020Z,3.28
2022-09-22T02:04:51.026Z,3.42
2022-09-22T02:07:25.112Z,3.80
2022-09-22T02:09:52.764Z,3.05
2022-09-22T02:12:19.861Z,2.90
2022-09-22T02:14:47.581Z,3.58
2022-09-22T02:17:15.912Z,3.15
2022-09-22T02:19:43.355Z,3.28
2022-09-22T02:22:11.702Z,3.28
2022-09-22T02:24:43.796Z,2.85
2022-09-22T02:27:27.732Z,2.70
2022-09-22T02:30:10.984Z,2.45
2022-09-22T02:32:40.644Z,2.50
2022-09-22T02:35:08.900Z,2.65
2022-09-22T02:37:41.982Z,2.10
2022-09-22T02:40:27.311Z,2.88
2022-09-22T02:43:09.180Z,2.70
2022-09-22T02:45:57.318Z,2.72
2022-09-22T02:48:36.102Z,2.67
2022-09-22T02:51:03.872Z,3.25
2022-09-22T02:53:30.756Z,3.30
2022-09-22T02:55:58.925Z,3.97
2022-09-22T02:58:25.740Z,3.72
2022-09-22T03:00:52.701Z,3.97
2022-09-22T03:03:19.587Z,2.97
2022-09-22T03:05:46.625Z,3.60
2022-09-22T03:08:13.550Z,3.80
2022-09-22T03:10:40.605Z,3.67
2022-09-22T03:13:16.422Z,4.70
2022-09-22T03:15:46.876Z,4.70
2022-09-22T03:18:14.646Z,3.28
2022-09-22T03:20:41.635Z,2.92
2022-09-22T03:23:08.923Z,3.85
2022-09-22T03:25:35.838Z,3.42
2022-09-22T03:28:03.321Z,3.38
2022-09-22T03:30:30.549Z,3.25
2022-09-22T03:32:58.180Z,4.57
2022-09-22T03:35:25.079Z,3.72
2022-09-22T03:37:52.114Z,4.13
2022-09-22T03:40:19.089Z,4.55
2022-09-22T03:42:46.120Z,3.47
2022-09-22T03:45:13.243Z,3.80
2022-09-22T03:47:40.519Z,4.13
2022-09-22T03:50:07.937Z,4.07
2022-09-22T03:52:36.623Z,4.18
2022-09-22T03:55:03.767Z,4.20
2022-09-22T03:57:30.932Z,4.45
2022-09-22T03:59:57.835Z,3.88
2022-09-22T04:02:24.966Z,4.15
2022-09-22T04:04:51.960Z,4.78
2022-09-22T04:07:19.110Z,5.50
2022-09-22T04:09:46.136Z,4.78
2022-09-22T04:12:13.107Z,4.50
2022-09-22T04:14:40.351Z,4.53
2022-09-22T04:17:07.303Z,5.13
2022-09-22T04:19:36.195Z,4.53
2022-09-22T04:22:04.374Z,4.97
2022-09-22T04:24:32.028Z,7.15
2022-09-22T04:27:19.209Z,6.18
2022-09-22T04:29:48.241Z,5.40
2022-09-22T04:32:16.566Z,4.15
2022-09-22T04:34:43.674Z,4.03
2022-09-22T04:37:11.990Z,5.40
2022-09-22T04:39:39.414Z,4.30
2022-09-22T04:42:08.994Z,4.43
2022-09-22T04:44:36.049Z,5.18
2022-09-22T04:47:04.227Z,4.78
2022-09-22T04:49:31.699Z,4.93
2022-09-22T04:52:00.143Z,4.90
2022-09-22T04:54:27.273Z,4.70
2022-09-22T04:56:54.307Z,4.60
2022-09-22T04:59:21.268Z,5.47
2022-09-22T05:01:48.241Z,4.93
2022-09-22T05:04:15.297Z,5.47
2022-09-22T05:06:43.812Z,5.32
2022-09-22T05:09:10.847Z,4.68
2022-09-22T05:11:39.562Z,4.85
2022-09-22T05:14:06.591Z,6.20
2022-09-22T05:16:33.952Z,5.97
2022-09-22T05:19:01.068Z,5.68
2022-09-22T05:21:28.263Z,5.57
2022-09-22T05:23:56.124Z,5.25
2022-09-22T05:26:23.192Z,5.63
2022-09-22T05:28:51.304Z,5.47
2022-09-22T05:31:18.254Z,5.70
2022-09-22T05:33:45.524Z,5.00
2022-09-22T05:36:12.814Z,6.07
2022-09-22T05:38:39.778Z,5.30
2022-09-22T05:41:07.719Z,5.47
2022-09-22T05:43:36.196Z,5.63
2022-09-22T05:46:03.449Z,4.70
2022-09-22T05:48:33.875Z,5.05
2022-09-22T05:51:01.424Z,4.85
2022-09-22T05:53:28.619Z,6.10
2022-09-22T05:55:57.102Z,4.95
2022-09-22T05:58:24.136Z,4.93
2022-09-22T06:00:51.226Z,5.32
2022-09-22T06:03:19.478Z,5.30
2022-09-22T06:05:47.752Z,4.85
2022-09-22T06:08:14.796Z,4.47
2022-09-22T06:10:42.654Z,4.65
2022-09-22T06:13:11.051Z,4.70
2022-09-22T06:15:38.595Z,5.63
2022-09-22T06:18:09.124Z,5.15
2022-09-22T06:20:39.083Z,4.45
2022-09-22T06:23:06.404Z,4.63
2022-09-22T06:25:33.436Z,4.93
2022-09-22T06:28:04.815Z,6.28
2022-09-22T06:30:33.442Z,5.90
2022-09-22T06:33:00.778Z,5.60
2022-09-22T06:35:34.186Z,4.97
2022-09-22T06:38:01.091Z,7.18
2022-09-22T06:40:28.685Z,5.60
2022-09-22T06:43:02.116Z,4.90
2022-09-22T06:45:33.846Z,4.80
2022-09-22T06:48:03.475Z,4.28
2022-09-22T06:50:33.526Z,5.43
2022-09-22T06:53:01.882Z,5.28
2022-09-22T06:55:29.682Z,5.82
2022-09-22T06:57:59.025Z,5.00
2022-09-22T07:00:33.780Z,5.05
2022-09-22T07:03:19.702Z,5.80
2022-09-22T07:06:06.906Z,4.20
2022-09-22T07:08:35.788Z,5.72
2022-09-22T07:11:08.094Z,4.47
2022-09-22T07:13:40.094Z,4.65
2022-09-22T07:18:45.822Z,5.18
2022-09-22T07:21:15.851Z,5.55
2022-09-22T07:23:44.219Z,5.32
2022-09-22T07:26:14.610Z,5.18
2022-09-22T07:28:42.170Z,5.55
2022-09-22T07:31:12.054Z,5.05
2022-09-22T07:33:42.302Z,5.90
2022-09-22T07:36:18.551Z,5.30
2022-09-22T07:38:52.188Z,5.88
2022-09-22T07:41:27.880Z,5.20
2022-09-22T07:43:57.823Z,5.63
2022-09-22T07:46:24.891Z,4.97
2022-09-22T07:48:51.948Z,4.88
2022-09-22T07:51:21.856Z,4.80
2022-09-22T07:53:51.660Z,3.90
2022-09-22T07:56:22.107Z,4.93
2022-09-22T07:58:53.561Z,4.60
2022-09-22T08:01:22.946Z,4.10
2022-09-22T08:03:58.651Z,3.80
2022-09-22T08:06:26.078Z,4.30
2022-09-22T08:08:56.671Z,4.00
2022-09-22T08:11:28.141Z,4.53
2022-09-22T08:14:00.947Z,5.35
2022-09-22T08:16:34.525Z,5.28
2022-09-22T08:19:10.495Z,4.80
2022-09-22T08:21:47.709Z,4.18
2022-09-22T08:24:21.606Z,4.32
2022-09-22T08:26:50.603Z,3.92
2022-09-22T08:29:18.207Z,4.03
2022-09-22T08:31:50.714Z,3.80
2022-09-22T08:34:18.396Z,4.00
2022-09-22T08:36:48.554Z,3.70
2022-09-22T08:39:17.545Z,3.92
2022-09-22T08:42:09.641Z,3.90
2022-09-22T08:47:13.724Z,3.75
2022-09-22T08:50:05.912Z,3.72
2022-09-22T08:52:47.006Z,3.90
2022-09-22T08:55:22.008Z,4.57
2022-09-22T08:58:01.123Z,3.67
2022-09-22T09:00:35.600Z,3.83
2022-09-22T09:03:41.766Z,5.00
2022-09-22T09:06:26.776Z,5.13
2022-09-22T09:09:05.887Z,4.35
2022-09-22T09:11:32.861Z,3.90
2022-09-22T09:14:39.316Z,4.00
2022-09-22T09:17:18.255Z,3.83
2022-09-22T09:20:08.283Z,2.97
2022-09-22T09:22:44.930Z,3.72
2022-09-22T09:25:35.829Z,3.20
2022-09-22T09:28:27.841Z,3.30
2022-09-22T09:31:05.439Z,3.00
2022-09-22T09:33:43.355Z,3.42
2022-09-22T09:38:52.089Z,3.05
2022-09-22T09:41:34.107Z,2.60
2022-09-22T09:46:52.248Z,2.83
2022-09-22T09:49:23.318Z,2.42
2022-09-22T09:51:57.403Z,2.20
2022-09-22T09:54:24.496Z,2.50
2022-09-22T09:57:14.326Z,2.92
2022-09-22T10:00:05.200Z,2.63
2022-09-22T10:03:05.024Z,2.30
2022-09-22T10:05:37.518Z,2.20
2022-09-22T10:08:23.657Z,2.03
2022-09-22T10:10:59.292Z,2.17
2022-09-22T10:13:35.248Z,2.25
2022-09-22T10:16:07.962Z,1.85
2022-09-22T10:18:40.918Z,2.58
2022-09-22T10:21:17.919Z,2.47
2022-09-22T10:23:50.938Z,2.05
2022-09-22T10:26:20.157Z,1.73
2022-09-22T10:29:19.244Z,0.90
2022-09-22T10:32:10.993Z,1.00
2022-09-22T10:37:20.933Z,0.88
2022-09-22T10:39:51.000Z,1.50
2022-09-22T10:45:19.628Z,1.50
2022-09-22T10:48:01.398Z,1.58
2022-09-22T10:51:24.363Z,1.30
2022-09-22T10:53:51.404Z,1.27
2022-09-22T10:56:35.916Z,1.20
2022-09-22T10:59:27.458Z,0.98
2022-09-22T11:02:19.056Z,1.08
2022-09-22T11:05:11.821Z,0.85
2022-09-22T11:08:32.772Z,1.30
2022-09-22T11:11:29.169Z,0.88
2022-09-22T11:14:33.125Z,0.65
2022-09-22T11:17:12.930Z,0.82
2022-09-22T11:19:58.812Z,0.60
2022-09-22T11:22:34.920Z,0.50
2022-09-22T11:25:14.581Z,0.63
2022-09-22T11:27:53.806Z,0.68
2022-09-22T11:30:22.938Z,0.70
2022-09-22T11:33:05.262Z,0.60
2022-09-22T11:36:02.152Z,0.60
2022-09-22T11:39:04.625Z,0.63
2022-09-22T11:41:49.247Z,0.80
2022-09-22T11:44:38.199Z,0.60
2022-09-22T11:47:16.516Z,0.75
2022-09-22T11:50:05.345Z,0.68
2022-09-22T11:52:44.377Z,0.40
2022-09-22T11:55:43.091Z,0.50
2022-09-22T11:58:17.286Z,0.60
2022-09-22T12:01:12.369Z,0.45
2022-09-22T12:04:01.614Z,0.57
2022-09-22T12:06:38.772Z,0.45
2022-09-22T12:09:36.556Z,0.90
2022-09-22T12:12:07.885Z,0.90
2022-09-22T12:14:36.376Z,0.97
2022-09-22T12:17:11.805Z,0.70
2022-09-22T12:20:05.327Z,0.50
2022-09-22T12:25:49.304Z,0.50
2022-09-22T12:28:26.020Z,0.60
2022-09-22T12:31:06.845Z,0.60
2022-09-22T12:33:37.461Z,0.63
2022-09-22T12:36:12.785Z,0.60
2022-09-22T12:38:42.976Z,0.50
2022-09-22T12:41:19.353Z,0.50
2022-09-22T12:43:48.668Z,0.77
2022-09-22T12:46:25.256Z,0.77
2022-09-22T12:48:54.709Z,0.63
2022-09-22T12:51:24.692Z,0.45
2022-09-22T12:53:52.374Z,0.82
2022-09-22T12:56:46.642Z,0.98
2022-09-22T12:59:52.803Z,0.80
2022-09-22T13:02:41.922Z,0.60
2022-09-22T13:05:13.186Z,1.00
2022-09-22T13:07:42.175Z,0.40
2022-09-22T13:10:24.743Z,0.50
2022-09-22T13:13:06.473Z,0.90
2022-09-22T13:18:38.982Z,0.60
2022-09-22T13:21:13.451Z,0.93
2022-09-22T13:24:08.637Z,0.68
2022-09-22T13:26:38.303Z,1.00
2022-09-22T13:31:46.600Z,1.45
2022-09-22T13:34:36.338Z,0.90
2022-09-22T13:37:23.797Z,0.50
2022-09-22T13:39:55.466Z,0.65
2022-09-22T13:45:03.783Z,0.47
2022-09-22T13:47:33.748Z,0.85
2022-09-22T13:50:13.800Z,0.47
2022-09-22T13:52:41.727Z,0.50
2022-09-22T13:55:20.263Z,0.47
2022-09-22T13:57:59.159Z,0.63
2022-09-22T14:00:41.382Z,0.60
2022-09-22T14:03:21.833Z,0.70
2022-09-22T14:08:32.158Z,0.60
2022-09-22T14:11:00.754Z,0.65
2022-09-22T14:14:09.640Z,0.60
2022-09-22T14:16:51.568Z,0.60
2022-09-22T14:19:23.628Z,0.52
2022-09-22T14:22:04.904Z,1.77
2022-09-22T14:24:34.665Z,0.68
2022-09-22T14:27:04.518Z,0.50
2022-09-22T14:29:38.823Z,0.63
2022-09-22T14:32:21.277Z,0.60
2022-09-22T14:34:51.486Z,0.57
2022-09-22T14:37:40.328Z,0.40
2022-09-22T14:40:22.821Z,0.77
2022-09-22T14:43:04.728Z,0.73
2022-09-22T14:45:32.898Z,0.57
2022-09-22T14:48:33.654Z,0.50
2022-09-22T14:51:08.322Z,0.50
2022-09-22T14:53:44.695Z,0.50
2022-09-22T14:56:20.153Z,0.50
2022-09-22T14:58:55.266Z,0.38
2022-09-22T15:01:48.205Z,0.73
2022-09-22T15:04:24.957Z,0.40
2022-09-22T15:06:58.745Z,0.77
2022-09-22T15:09:42.850Z,1.00
2022-09-22T15:12:47.349Z,0.60
2022-09-22T15:15:32.040Z,0.52
2022-09-22T15:18:21.590Z,0.70
2022-09-22T15:20:53.585Z,0.63
2022-09-22T15:23:27.009Z,0.95
2022-09-22T15:25:55.657Z,1.10
2022-09-22T15:28:25.273Z,1.00
2022-09-22T15:30:53.500Z,0.90
2022-09-22T15:33:21.501Z,0.70
2022-09-22T15:36:13.028Z,0.80
2022-09-22T15:38:40.254Z,1.15
2022-09-22T15:41:13.140Z,0.50
2022-09-22T15:43:41.128Z,0.40
2022-09-22T15:46:28.643Z,0.73
2022-09-22T15:49:08.976Z,0.70
2022-09-22T15:51:36.433Z,1.13
2022-09-22T15:54:04.424Z,0.63
2022-09-22T15:56:31.597Z,0.55
2022-09-22T15:59:00.958Z,0.47
2022-09-22T16:01:29.484Z,0.40
2022-09-22T16:04:00.050Z,0.60
2022-09-22T16:06:28.221Z,0.43
2022-09-22T16:08:56.445Z,0.40
2022-09-22T16:11:29.562Z,0.70
2022-09-22T16:14:03.546Z,0.70
2022-09-22T16:16:32.975Z,0.60
2022-09-22T16:19:00.618Z,0.73
2022-09-22T16:21:29.846Z,0.50
2022-09-22T16:24:03.437Z,0.40
2022-09-22T16:26:31.883Z,0.55
2022-09-22T16:28:59.510Z,1.35
2022-09-22T16:31:27.612Z,0.73
2022-09-22T16:33:56.710Z,0.60
2022-09-22T16:36:26.156Z,0.47
2022-09-22T16:38:53.597Z,0.52
2022-09-22T16:41:23.175Z,0.90
2022-09-22T16:43:52.568Z,1.00
2022-09-22T16:46:33.725Z,2.25
2022-09-22T16:49:05.367Z,2.00
2022-09-22T16:51:38.205Z,0.90
2022-09-22T16:54:07.506Z,0.65
2022-09-22T16:56:37.831Z,0.55
2022-09-22T16:59:05.593Z,0.82
2022-09-22T17:01:38.152Z,0.70
2022-09-22T17:04:07.148Z,0.63
2022-09-22T17:06:36.082Z,0.90
2022-09-22T17:09:04.285Z,1.00
2022-09-22T17:11:39.248Z,0.88
2022-09-22T17:14:12.337Z,0.77
2022-09-22T17:16:44.462Z,0.80
2022-09-22T17:19:17.169Z,0.98
2022-09-22T17:21:48.641Z,1.23
2022-09-22T17:24:16.864Z,0.90
2022-09-22T17:26:49.355Z,1.40
2022-09-22T17:29:18.984Z,1.95
2022-09-22T17:31:49.070Z,2.25
2022-09-22T17:34:17.207Z,2.00
2022-09-22T17:36:45.015Z,1.20
2022-09-22T17:39:12.110Z,1.08
2022-09-22T17:41:47.070Z,0.75
2022-09-22T17:44:19.675Z,1.00
2022-09-22T17:47:07.030Z,0.73
2022-09-22T17:49:52.806Z,1.02
2022-09-22T17:52:28.592Z,0.70
2022-09-22T17:55:07.111Z,1.00
2022-09-22T17:57:41.332Z,1.40
2022-09-22T18:00:26.605Z,1.08
2022-09-22T18:02:54.437Z,0.77
2022-09-22T18:05:26.635Z,1.23
2022-09-22T18:07:57.947Z,0.80
2022-09-22T18:10:34.210Z,0.75
2022-09-22T18:13:05.571Z,4.07
2022-09-22T18:15:32.705Z,4.97
2022-09-22T18:17:59.736Z,2.85
2022-09-22T18:20:27.574Z,1.30
2022-09-22T18:22:56.013Z,1.48
2022-09-22T18:25:25.855Z,0.90
2022-09-22T18:27:53.574Z,1.30
2022-09-22T18:30:20.690Z,0.88
2022-09-22T18:32:48.369Z,0.73
2022-09-22T18:35:15.906Z,2.33
2022-09-22T18:37:43.517Z,5.88
2022-09-22T18:40:13.003Z,8.70
2022-09-22T18:42:42.033Z,3.22
2022-09-22T18:45:15.100Z,2.05
2022-09-22T18:47:43.870Z,1.42
2022-09-22T18:50:13.177Z,0.85
2022-09-22T18:52:43.923Z,1.90
2022-09-22T18:55:19.238Z,2.00
2022-09-22T18:57:49.364Z,5.07
2022-09-22T19:00:17.345Z,5.57
2022-09-22T19:02:46.426Z,3.70
2022-09-22T19:05:13.833Z,1.75
2022-09-22T19:07:44.308Z,1.42
2022-09-22T19:10:14.069Z,1.25
2022-09-22T19:12:42.767Z,1.45
2022-09-22T19:15:13.994Z,1.00
2022-09-22T19:17:46.249Z,1.08
2022-09-22T19:20:22.041Z,0.90
2022-09-22T19:22:50.917Z,1.20
2022-09-22T19:25:21.519Z,0.98
2022-09-22T19:27:49.784Z,1.30
2022-09-22T19:30:21.788Z,0.90
2022-09-22T19:32:50.951Z,1.38
2022-09-22T19:35:18.658Z,1.00
2022-09-22T19:37:47.673Z,1.10
2022-09-22T19:40:20.445Z,1.23
2022-09-22T19:42:52.967Z,4.28
2022-09-22T19:45:24.003Z,1.80
2022-09-22T19:47:56.961Z,1.20
2022-09-22T19:50:26.438Z,1.13
2022-09-22T19:52:55.975Z,1.40
2022-09-22T19:55:25.912Z,1.42
2022-09-22T19:57:54.361Z,1.00
2022-09-22T20:00:33.823Z,1.17
2022-09-22T20:03:01.489Z,1.30
2022-09-22T20:05:38.850Z,1.30
2022-09-22T20:08:16.036Z,1.20
2022-09-22T20:10:49.045Z,1.33
2022-09-22T20:13:35.760Z,1.40
2022-09-22T20:16:04.665Z,1.33
2022-09-22T20:18:36.368Z,1.58
2022-09-22T20:21:10.105Z,1.30
2022-09-22T20:23:39.506Z,1.48
2022-09-22T20:26:06.966Z,1.35
2022-09-22T20:28:36.161Z,3.83
2022-09-22T20:31:07.752Z,3.95
2022-09-22T20:33:35.237Z,3.03
2022-09-22T20:36:21.284Z,2.30
2022-09-22T20:38:52.195Z,2.05
2022-09-22T20:43:49.652Z,4.15
2022-09-22T20:46:21.054Z,7.88
2022-09-22T20:48:51.616Z,5.03
2022-09-22T20:51:18.948Z,1.95
2022-09-22T20:53:47.301Z,1.90
2022-09-22T20:56:14.507Z,2.35
2022-09-22T20:58:44.884Z,1.48
2022-09-22T21:01:14.408Z,1.40
2022-09-22T21:03:41.879Z,2.38
2022-09-22T21:06:14.517Z,2.58
2022-09-22T21:09:03.524Z,3.50
2022-09-22T21:11:31.964Z,8.70
2022-09-22T21:14:05.978Z,8.77
2022-09-22T21:16:35.566Z,6.72
2022-09-22T21:19:03.179Z,3.58
2022-09-22T21:21:32.247Z,2.30
2022-09-22T21:24:03.811Z,2.10
2022-09-22T21:26:34.158Z,2.05
2022-09-22T21:29:01.643Z,1.48
2022-09-22T21:31:29.775Z,1.65
2022-09-22T21:33:56.906Z,1.58
2022-09-22T21:36:31.455Z,1.70
2022-09-22T21:39:00.316Z,1.90
2022-09-22T21:41:31.599Z,1.90
2022-09-22T21:44:01.333Z,2.05
2022-09-22T21:46:30.056Z,2.40
2022-09-22T21:49:01.309Z,2.13
2022-09-22T21:51:30.518Z,2.30
2022-09-22T21:53:57.477Z,2.80
2022-09-22T21:56:25.775Z,2.50
2022-09-22T21:58:54.471Z,2.40
2022-09-22T22:01:22.720Z,2.40
2022-09-22T22:03:51.140Z,1.92
2022-09-22T22:06:20.701Z,2.50
2022-09-22T22:09:00.829Z,2.95
2022-09-22T22:11:31.039Z,2.63
2022-09-22T22:14:00.099Z,1.98
2022-09-22T22:16:30.977Z,2.10
2022-09-22T22:18:59.087Z,2.30
2022-09-22T22:21:28.954Z,2.67
2022-09-22T22:24:18.318Z,2.63
2022-09-22T22:26:51.690Z,2.60
2022-09-22T22:29:21.096Z,3.13
2022-09-22T22:31:49.219Z,3.20
2022-09-22T22:34:21.026Z,4.63
2022-09-22T22:39:16.533Z,3.47
2022-09-22T22:41:43.472Z,3.53
2022-09-22T22:44:12.297Z,3.53
2022-09-22T22:46:39.241Z,2.30
2022-09-22T22:49:09.134Z,2.72
2022-09-22T22:51:36.164Z,2.55
2022-09-22T22:54:03.517Z,2.20
2022-09-22T22:56:31.109Z,2.78
2022-09-22T22:58:58.284Z,2.40
2022-09-22T23:01:27.741Z,2.58
2022-09-22T23:03:56.929Z,2.88
2022-09-22T23:06:45.310Z,2.38
2022-09-22T23:09:15.326Z,2.30
2022-09-22T23:11:43.468Z,3.67
2022-09-22T23:14:12.777Z,3.30
2022-09-22T23:16:45.278Z,2.72
2022-09-22T23:19:14.687Z,3.22
2022-09-22T23:21:42.066Z,2.60
2022-09-22T23:24:09.663Z,1.98
2022-09-22T23:26:37.607Z,3.70
2022-09-22T23:29:05.251Z,3.08
2022-09-22T23:31:32.469Z,2.35
2022-09-22T23:33:59.824Z,2.67
2022-09-22T23:36:29.070Z,2.30
2022-09-22T23:38:58.129Z,2.10
2022-09-22T23:41:25.275Z,2.30
2022-09-22T23:43:52.220Z,3.00
2022-09-22T23:46:20.870Z,2.40
2022-09-22T23:48:47.943Z,2.85
2022-09-22T23:51:15.190Z,2.25
2022-09-22T23:53:42.463Z,2.70
2022-09-22T23:56:09.594Z,2.50
2022-09-22T23:58:38.096Z,2.38
